DL0GY-13 Weather Reports


time (UTC)temp
C
wind
direction
speed
KPH
gust
KPH
rain 1hr
cm
rain 24hr
cm
rain mn
cm
humidity
%
barometer
mb
20260502123033 28 225 0.0 0.0 0.00 0.00 0.00 36 1015.8
20260502122033 30 247 0.0 0.0 0.00 0.00 0.00 34 1015.8
20260502111033 32 202 0.0 0.0 0.00 0.00 0.00 31 1016.8
20260502110033 31 180 0.0 0.0 0.00 0.00 0.00 32 1016.8
20260502105033 31 225 0.0 0.0 0.00 0.00 0.00 31 1017.0
20260502104033 32 225 0.0 0.0 0.00 0.00 0.00 31 1017.0
20260502103033 31 45 0.0 0.0 0.00 0.00 0.00 31 1017.3
20260502102033 32 157 0.0 0.0 0.00 0.00 0.00 31 1017.4
20260502101033 32 225 0.0 0.0 0.00 0.00 0.00 30 1017.4
20260502091033 28 202 0.0 0.0 0.00 0.00 0.00 33 1018.0
20260502071033 28 112 0.0 0.0 0.00 0.00 0.00 31 1018.3
20260502070032 27 157 0.0 0.0 0.00 0.00 0.00 31 1018.5
20260502065033 27 135 0.0 0.0 0.00 0.00 0.00 33 1018.8
20260502064033 27 135 0.0 0.0 0.00 0.00 0.00 34 1018.9
20260502063033 28 135 0.0 0.0 0.00 0.00 0.00 34 1018.6
20260502062032 27 135 0.0 0.0 0.00 0.00 0.00 37 1018.5
20260502061033 26 135 0.0 0.0 0.00 0.00 0.00 37 1018.4
20260502054033 22 135 0.0 0.0 0.00 0.00 0.00 47 1018.7
20260502052033 20 135 0.0 0.0 0.00 0.00 0.00 52 1018.5
20260502051033 18 135 0.0 0.0 0.00 0.00 0.00 56 1018.4
20260502045033 14 135 0.0 0.0 0.00 0.00 0.00 66 1018.4
20260502044033 11 135 0.0 0.0 0.00 0.00 0.00 73 1018.5
20260502043033 10 90 0.0 0.0 0.00 0.00 0.00 78 1018.6
20260502042033 7 90 0.0 0.0 0.00 0.00 0.00 79 1018.8
20260502040033 7 90 0.0 0.0 0.00 0.00 0.00 78 1018.8
20260502035033 7 112 0.0 0.0 0.00 0.00 0.00 78 1018.9
20260502034033 7 112 0.0 0.0 0.00 0.00 0.00 77 1019.0
20260502033033 7 112 0.0 0.0 0.00 0.00 0.00 77 1018.9
20260502032033 7 112 0.0 0.0 0.00 0.00 0.00 77 1019.0
20260502031033 8 112 0.0 0.0 0.00 0.00 0.00 76 1018.9
20260502030033 8 112 0.0 0.0 0.00 0.00 0.00 76 1019.0
20260502025036 8 112 0.0 0.0 0.00 0.00 0.00 75 1019.3
20260502025032 8 112 0.0 0.0 0.00 0.00 0.00 75 1019.3
20260502024033 8 112 0.0 0.0 0.00 0.00 0.00 75 1019.2
20260502023033 8 112 0.0 0.0 0.00 0.00 0.00 75 1019.3
20260502022036 8 112 0.0 0.0 0.00 0.00 0.00 74 1019.2
20260502022033 8 112 0.0 0.0 0.00 0.00 0.00 74 1019.2
20260502021033 8 112 0.0 0.0 0.00 0.00 0.00 74 1019.4
20260502020033 8 112 0.0 0.0 0.00 0.00 0.00 74 1019.4
20260502015033 9 112 0.0 0.0 0.00 0.00 0.00 73 1019.4
20260502014033 9 112 0.0 0.0 0.00 0.00 0.00 73 1019.5
20260502013033 9 112 0.0 0.0 0.00 0.00 0.00 72 1019.5
20260502012033 9 112 0.0 0.0 0.00 0.00 0.00 72 1019.7
20260502011033 9 112 0.0 0.0 0.00 0.00 0.00 72 1019.7
20260502005033 10 112 0.0 0.0 0.00 0.00 0.00 71 1020.0
20260502004033 10 112 0.0 0.0 0.00 0.00 0.00 71 1020.1
20260502003033 10 112 0.0 0.0 0.00 0.00 0.00 70 1020.1
20260502001033 10 112 0.0 0.0 0.00 0.00 0.00 69 1020.4
20260502000033 10 112 0.0 0.0 0.00 0.00 0.00 68 1020.3
20260501235033 11 112 0.0 0.0 0.00 0.00 0.00 66 1020.4
20260501234033 11 112 0.0 0.0 0.00 0.00 0.00 65 1020.4
20260501233033 10 180 0.0 0.0 0.00 0.00 0.00 66 1020.4
20260501232033 10 180 0.0 0.0 0.00 0.00 0.00 66 1020.6
20260501231033 11 180 0.0 0.0 0.00 0.00 0.00 65 1020.6
20260501230034 11 180 0.0 0.0 0.00 0.00 0.00 62 1020.6
20260501225034 12 157 0.0 0.0 0.00 0.00 0.00 60 1020.6
20260501224033 12 157 0.0 0.0 0.00 0.00 0.00 59 1020.7
20260501223033 12 157 0.0 0.0 0.00 0.00 0.00 58 1020.7
20260501222033 12 157 0.0 0.0 0.00 0.00 0.00 59 1020.8
20260501221034 12 157 0.0 0.0 0.00 0.00 0.00 58 1020.9
20260501220033 12 157 0.0 0.0 0.00 0.00 0.00 58 1020.9
20260501215033 12 157 0.0 0.0 0.00 0.00 0.00 58 1020.9
20260501214033 12 157 0.0 0.0 0.00 0.00 0.00 58 1020.8
20260501212033 13 157 0.0 0.0 0.00 0.00 0.00 55 1020.9
20260501211034 13 157 0.0 0.0 0.00 0.00 0.00 55 1020.8
20260501210033 13 157 0.0 0.0 0.00 0.00 0.00 55 1020.8
20260501205033 13 157 0.0 0.0 0.00 0.00 0.00 55 1020.9
20260501204033 14 157 0.0 0.0 0.00 0.00 0.00 55 1020.7
20260501203033 15 157 0.0 0.0 0.00 0.00 0.00 56 1020.8
20260501202033 15 157 0.0 0.0 0.00 0.00 0.00 53 1021.0
20260501201033 16 157 0.0 0.0 0.00 0.00 0.00 44 1020.8
20260501200033 16 157 0.0 0.0 0.00 0.00 0.00 39 1021.0
20260501195033 17 157 0.0 0.0 0.00 0.00 0.00 38 1020.9
20260501194033 17 157 0.0 0.0 0.00 0.00 0.00 36 1020.7
20260501193034 18 157 0.0 0.0 0.00 0.00 0.00 35 1020.6
20260501192033 18 157 0.0 0.0 0.00 0.00 0.00 34 1020.6
20260501191034 19 157 0.0 0.0 0.00 0.00 0.00 34 1020.8
20260501190033 20 157 0.0 0.0 0.00 0.00 0.00 33 1020.7
20260501185033 20 135 0.0 0.0 0.00 0.00 0.00 32 1020.7
20260501184033 20 135 0.0 0.0 0.00 0.00 0.00 32 1020.7
20260501183033 21 157 0.0 0.0 0.00 0.00 0.00 32 1020.8
20260501182033 21 180 0.0 0.0 0.00 0.00 0.00 32 1020.6
20260501181033 21 180 0.0 0.0 0.00 0.00 0.00 31 1020.7
20260501180033 21 157 0.0 0.0 0.00 0.00 0.00 30 1020.5
20260501175033 21 157 0.0 0.0 0.00 0.00 0.00 30 1020.6
20260501174034 22 135 0.0 0.0 0.00 0.00 0.00 29 1020.4
20260501173034 22 157 0.0 0.0 0.00 0.00 0.00 29 1020.5
20260501172033 22 157 0.0 0.0 0.00 0.00 0.00 29 1020.5
20260501171033 22 202 0.0 0.0 0.00 0.00 0.00 29 1020.4
20260501170033 22 135 0.0 0.0 0.00 0.00 0.00 28 1020.6
20260501165034 22 112 0.0 0.0 0.00 0.00 0.00 28 1020.5
20260501164033 22 180 0.0 0.0 0.00 0.00 0.00 28 1020.4
20260501163033 23 135 0.0 0.0 0.00 0.00 0.00 28 1020.5
20260501162034 23 180 0.0 0.0 0.00 0.00 0.00 27 1020.6
20260501161033 23 180 0.0 0.0 0.00 0.00 0.00 26 1020.8
20260501160034 23 135 0.0 0.0 0.00 0.00 0.00 26 1020.9
20260501155033 23 202 0.0 0.0 0.00 0.00 0.00 26 1021.0
20260501154033 23 180 0.0 0.0 0.00 0.00 0.00 26 1021.0
20260501153033 24 157 0.0 0.0 0.00 0.00 0.00 25 1021.0
20260501152034 23 135 0.0 0.0 0.00 0.00 0.00 26 1021.1
20260501151033 23 180 0.0 0.0 0.00 0.00 0.00 27 1021.3